createdAt,value
2022-08-26T00:00:06.285Z,10.00
2022-08-26T00:01:06.285Z,7.20
2022-08-26T00:02:06.347Z,9.00
2022-08-26T00:03:06.353Z,9.90
2022-08-26T00:04:06.278Z,8.20
2022-08-26T00:05:06.226Z,8.60
2022-08-26T00:06:06.209Z,8.90
2022-08-26T00:07:06.189Z,8.50
2022-08-26T00:08:06.216Z,7.20
2022-08-26T00:09:08.071Z,6.90
2022-08-26T00:10:06.162Z,8.40
2022-08-26T00:11:06.140Z,7.10
2022-08-26T00:12:06.145Z,6.50
2022-08-26T00:13:06.401Z,9.40
2022-08-26T00:14:06.473Z,9.00
2022-08-26T00:15:06.093Z,8.10
2022-08-26T00:16:06.140Z,9.00
2022-08-26T00:17:06.077Z,6.80
2022-08-26T00:18:16.809Z,6.80
2022-08-26T00:19:07.045Z,6.30
2022-08-26T00:20:06.145Z,7.40
2022-08-26T00:21:06.413Z,8.80
2022-08-26T00:22:06.029Z,8.20
2022-08-26T00:23:06.204Z,8.40
2022-08-26T00:24:05.986Z,7.90
2022-08-26T00:25:06.039Z,10.20
2022-08-26T00:26:05.976Z,8.40
2022-08-26T00:27:06.357Z,7.30
2022-08-26T00:28:05.945Z,9.60
2022-08-26T00:29:05.926Z,7.60
2022-08-26T00:30:05.913Z,11.90
2022-08-26T00:31:05.944Z,7.40
2022-08-26T00:32:05.952Z,8.20
2022-08-26T00:33:06.043Z,8.60
2022-08-26T00:34:05.861Z,8.40
2022-08-26T00:35:05.852Z,8.20
2022-08-26T00:36:05.841Z,9.00
2022-08-26T00:37:09.394Z,7.00
2022-08-26T00:38:05.825Z,6.90
2022-08-26T00:39:05.803Z,10.30
2022-08-26T00:40:05.872Z,7.80
2022-08-26T00:41:05.784Z,6.80
2022-08-26T00:42:05.806Z,8.90
2022-08-26T00:43:09.470Z,7.50
2022-08-26T00:44:05.769Z,8.60
2022-08-26T00:45:10.209Z,9.40
2022-08-26T00:46:06.836Z,8.30
2022-08-26T00:47:05.727Z,9.20
2022-08-26T00:48:05.739Z,7.00
2022-08-26T00:49:12.225Z,8.00
2022-08-26T00:50:06.671Z,6.60
2022-08-26T00:51:05.659Z,6.80
2022-08-26T00:52:05.663Z,6.90
2022-08-26T00:53:05.892Z,10.40
2022-08-26T00:54:05.719Z,8.30
2022-08-26T00:55:05.618Z,8.20
2022-08-26T00:56:05.600Z,8.80
2022-08-26T00:57:05.596Z,6.10
2022-08-26T00:58:06.594Z,8.10
2022-08-26T00:59:05.566Z,7.70
2022-08-26T01:00:05.613Z,9.20
2022-08-26T01:01:05.587Z,9.00
2022-08-26T01:02:05.604Z,7.70
2022-08-26T01:03:05.838Z,8.70
2022-08-26T01:04:06.514Z,8.40
2022-08-26T01:05:05.603Z,8.90
2022-08-26T01:06:05.481Z,10.50
2022-08-26T01:07:06.471Z,9.10
2022-08-26T01:08:05.522Z,8.50
2022-08-26T01:09:05.450Z,9.00
2022-08-26T01:10:05.530Z,9.00
2022-08-26T01:11:05.460Z,11.30
2022-08-26T01:12:05.441Z,8.50
2022-08-26T01:13:05.416Z,9.90
2022-08-26T01:14:05.396Z,9.40
2022-08-26T01:15:05.644Z,10.90
2022-08-26T01:16:05.488Z,11.30
2022-08-26T01:17:05.360Z,11.90
2022-08-26T01:18:05.347Z,8.80
2022-08-26T01:19:06.150Z,10.70
2022-08-26T01:20:05.385Z,12.30
2022-08-26T01:21:05.342Z,12.00
2022-08-26T01:22:05.301Z,11.40
2022-08-26T01:23:05.392Z,12.60
2022-08-26T01:24:05.299Z,14.30
2022-08-26T01:25:05.274Z,11.80
2022-08-26T01:26:05.271Z,12.80
2022-08-26T01:27:05.339Z,15.80
2022-08-26T01:28:05.270Z,12.50
2022-08-26T01:29:05.228Z,15.60
2022-08-26T01:30:05.233Z,13.10
2022-08-26T01:31:05.231Z,15.30
2022-08-26T01:32:05.299Z,16.20
2022-08-26T01:33:05.200Z,15.20
2022-08-26T01:34:05.153Z,17.20
2022-08-26T01:35:05.135Z,15.00
2022-08-26T01:36:05.161Z,12.60
2022-08-26T01:37:05.366Z,14.60
2022-08-26T01:38:05.123Z,15.50
2022-08-26T01:39:05.954Z,13.80
2022-08-26T01:40:05.191Z,15.80
2022-08-26T01:41:14.150Z,13.70
2022-08-26T01:42:06.077Z,16.40
2022-08-26T01:43:05.163Z,17.00
2022-08-26T01:44:05.047Z,12.50
2022-08-26T01:45:05.059Z,18.70
2022-08-26T01:46:05.092Z,17.00
2022-08-26T01:47:05.202Z,16.30
2022-08-26T01:48:05.031Z,19.60
2022-08-26T01:49:06.564Z,14.50
2022-08-26T01:50:04.988Z,15.10
2022-08-26T01:51:04.960Z,15.90
2022-08-26T01:52:04.936Z,16.70
2022-08-26T01:53:05.169Z,14.60
2022-08-26T01:54:04.912Z,18.30
2022-08-26T01:55:04.897Z,14.90
2022-08-26T01:56:04.912Z,15.80
2022-08-26T01:57:04.889Z,15.50
2022-08-26T01:58:05.195Z,15.70
2022-08-26T01:59:04.942Z,17.00
2022-08-26T02:00:04.837Z,17.50
2022-08-26T02:01:04.889Z,15.20
2022-08-26T02:02:04.861Z,21.90
2022-08-26T02:03:04.801Z,16.70
2022-08-26T02:04:04.910Z,20.60
2022-08-26T02:05:04.782Z,20.50
2022-08-26T02:06:04.789Z,18.70
2022-08-26T02:07:04.771Z,20.00
2022-08-26T02:08:04.740Z,21.40
2022-08-26T02:09:04.750Z,18.20
2022-08-26T02:10:04.715Z,22.50
2022-08-26T02:11:04.714Z,20.70
2022-08-26T02:12:04.693Z,17.60
2022-08-26T02:13:04.759Z,22.30
2022-08-26T02:14:04.730Z,19.60
2022-08-26T02:15:05.748Z,21.50
2022-08-26T02:16:04.712Z,23.20
2022-08-26T02:17:04.643Z,19.10
2022-08-26T02:18:04.627Z,18.20
2022-08-26T02:19:04.626Z,18.50
2022-08-26T02:20:04.706Z,19.80
2022-08-26T02:21:06.712Z,24.50
2022-08-26T02:22:04.583Z,18.60
2022-08-26T02:23:04.638Z,23.90
2022-08-26T02:24:04.558Z,19.20
2022-08-26T02:25:04.565Z,20.80
2022-08-26T02:26:04.571Z,20.10
2022-08-26T02:27:04.526Z,24.90
2022-08-26T02:28:04.583Z,21.80
2022-08-26T02:29:04.508Z,25.80
2022-08-26T02:30:04.488Z,22.70
2022-08-26T02:31:04.682Z,22.00
2022-08-26T02:32:04.468Z,22.80
2022-08-26T02:33:04.490Z,24.00
2022-08-26T02:34:04.450Z,24.80
2022-08-26T02:35:04.462Z,26.50
2022-08-26T02:36:04.444Z,26.20
2022-08-26T02:37:04.493Z,24.10
2022-08-26T02:38:09.922Z,25.40
2022-08-26T02:39:05.402Z,26.00
2022-08-26T02:40:04.416Z,28.80
2022-08-26T02:41:04.365Z,29.70
2022-08-26T02:42:04.359Z,31.60
2022-08-26T02:43:04.407Z,34.00
2022-08-26T02:44:04.402Z,35.10
2022-08-26T02:45:04.331Z,30.90
2022-08-26T02:46:04.318Z,33.40
2022-08-26T02:47:04.344Z,35.10
2022-08-26T02:48:04.294Z,36.40
2022-08-26T02:49:04.367Z,41.20
2022-08-26T02:50:04.277Z,37.90
2022-08-26T02:51:04.255Z,39.40
2022-08-26T02:52:04.241Z,41.60
2022-08-26T02:53:04.284Z,41.50
2022-08-26T02:54:04.305Z,42.70
2022-08-26T02:55:04.212Z,46.70
2022-08-26T02:56:04.194Z,45.00
2022-08-26T02:57:04.187Z,48.80
2022-08-26T02:58:04.166Z,48.80
2022-08-26T02:59:04.187Z,48.20
2022-08-26T03:00:04.178Z,49.80
2022-08-26T03:01:04.908Z,51.90
2022-08-26T03:02:04.182Z,53.00
2022-08-26T03:03:04.280Z,51.90
2022-08-26T03:04:04.106Z,53.90
2022-08-26T03:05:04.093Z,54.20
2022-08-26T03:06:04.250Z,54.20
2022-08-26T03:07:04.067Z,56.40
2022-08-26T03:08:04.084Z,56.50
2022-08-26T03:09:04.053Z,56.00
2022-08-26T03:10:08.389Z,58.30
2022-08-26T03:11:04.101Z,57.80
2022-08-26T03:12:04.006Z,61.30
2022-08-26T03:13:05.172Z,58.30
2022-08-26T03:14:03.994Z,61.00
2022-08-26T03:15:17.351Z,65.40
2022-08-26T03:16:05.007Z,68.30
2022-08-26T03:17:03.998Z,64.90
2022-08-26T03:18:03.942Z,64.10
2022-08-26T03:19:03.933Z,63.30
2022-08-26T03:20:03.927Z,67.30
2022-08-26T03:21:03.904Z,65.30
2022-08-26T03:22:03.902Z,68.50
2022-08-26T03:23:04.148Z,65.40
2022-08-26T03:24:03.930Z,65.70
2022-08-26T03:25:03.869Z,65.30
2022-08-26T03:26:03.846Z,72.50
2022-08-26T03:27:05.907Z,67.60
2022-08-26T03:28:03.842Z,70.40
2022-08-26T03:29:03.907Z,69.90
2022-08-26T03:30:03.799Z,71.30
2022-08-26T03:31:03.870Z,69.80
2022-08-26T03:32:03.778Z,71.70
2022-08-26T03:33:03.786Z,72.60
2022-08-26T03:34:03.776Z,77.80
2022-08-26T03:35:03.785Z,77.60
2022-08-26T03:36:03.759Z,76.20
2022-08-26T03:37:03.747Z,73.40
2022-08-26T03:38:03.727Z,74.80
2022-08-26T03:39:03.712Z,76.30
2022-08-26T03:40:03.741Z,74.90
2022-08-26T03:41:03.765Z,75.90
2022-08-26T03:42:03.665Z,72.80
2022-08-26T03:43:03.794Z,77.10
2022-08-26T03:44:03.656Z,75.50
2022-08-26T03:45:03.632Z,76.20
2022-08-26T03:46:03.728Z,75.90
2022-08-26T03:47:03.633Z,72.50
2022-08-26T03:48:03.606Z,75.80
2022-08-26T03:49:03.595Z,75.10
2022-08-26T03:50:03.580Z,71.70
2022-08-26T03:51:03.569Z,76.20
2022-08-26T03:52:03.578Z,75.30
2022-08-26T03:53:03.655Z,75.70
2022-08-26T03:54:03.539Z,75.70
2022-08-26T03:55:03.510Z,77.20
2022-08-26T03:56:03.513Z,77.90
2022-08-26T03:57:03.510Z,74.90
2022-08-26T03:58:03.586Z,74.70
2022-08-26T03:59:03.518Z,74.60
2022-08-26T04:00:03.477Z,74.90
2022-08-26T04:01:03.436Z,77.60
2022-08-26T04:02:03.473Z,74.50
2022-08-26T04:03:04.566Z,73.00
2022-08-26T04:04:03.406Z,73.00
2022-08-26T04:05:03.387Z,73.70
2022-08-26T04:06:03.382Z,73.30
2022-08-26T04:07:03.367Z,75.10
2022-08-26T04:08:03.360Z,73.80
2022-08-26T04:09:03.369Z,70.10
2022-08-26T04:10:03.327Z,69.50
2022-08-26T04:11:03.316Z,69.70
2022-08-26T04:12:03.327Z,70.60
2022-08-26T04:13:03.298Z,73.00
2022-08-26T04:14:03.368Z,71.10
2022-08-26T04:15:03.266Z,71.30
2022-08-26T04:16:03.369Z,73.10
2022-08-26T04:17:03.259Z,73.10
2022-08-26T04:18:03.238Z,71.30
2022-08-26T04:19:03.219Z,69.70
2022-08-26T04:20:03.301Z,72.90
2022-08-26T04:21:03.199Z,70.50
2022-08-26T04:22:03.182Z,72.80
2022-08-26T04:23:03.185Z,71.80
2022-08-26T04:24:03.390Z,73.30
2022-08-26T04:25:03.158Z,72.80
2022-08-26T04:26:03.196Z,70.80
2022-08-26T04:27:03.143Z,72.10
2022-08-26T04:28:03.126Z,71.20
2022-08-26T04:29:03.114Z,68.70
2022-08-26T04:30:03.098Z,69.20
2022-08-26T04:31:03.295Z,72.80
2022-08-26T04:32:03.106Z,70.90
2022-08-26T04:33:03.088Z,73.00
2022-08-26T04:34:03.044Z,72.10
2022-08-26T04:35:03.037Z,71.70
2022-08-26T04:36:03.023Z,73.10
2022-08-26T04:37:03.043Z,72.70
2022-08-26T04:38:03.020Z,69.40
2022-08-26T04:39:02.980Z,71.50
2022-08-26T04:40:03.066Z,71.50
2022-08-26T04:41:02.969Z,72.90
2022-08-26T04:42:02.962Z,73.20
2022-08-26T04:43:02.962Z,75.40
2022-08-26T04:44:02.959Z,73.10
2022-08-26T04:45:05.771Z,71.80
2022-08-26T04:46:03.966Z,72.90
2022-08-26T04:47:03.049Z,75.10
2022-08-26T04:48:02.967Z,73.20
2022-08-26T04:49:02.858Z,77.10
2022-08-26T04:50:02.873Z,75.20
2022-08-26T04:51:02.838Z,72.10
2022-08-26T04:52:02.844Z,73.90
2022-08-26T04:53:02.839Z,72.60
2022-08-26T04:54:02.797Z,72.60
2022-08-26T04:55:02.784Z,71.10
2022-08-26T04:56:02.776Z,70.10
2022-08-26T04:57:02.786Z,72.30
2022-08-26T04:58:02.771Z,71.50
2022-08-26T04:59:02.746Z,71.90
2022-08-26T05:00:02.737Z,71.10
2022-08-26T05:01:02.722Z,72.50
2022-08-26T05:02:02.781Z,75.20
2022-08-26T05:03:02.759Z,74.00
2022-08-26T05:04:02.823Z,74.40
2022-08-26T05:05:03.663Z,72.80
2022-08-26T05:06:02.663Z,71.00
2022-08-26T05:07:03.181Z,73.60
2022-08-26T05:08:02.634Z,75.60
2022-08-26T05:09:02.696Z,73.60
2022-08-26T05:10:02.613Z,74.90
2022-08-26T05:11:02.624Z,70.20
2022-08-26T05:12:02.603Z,72.50
2022-08-26T05:13:02.579Z,77.20
2022-08-26T05:14:02.615Z,75.20
2022-08-26T05:15:02.552Z,76.90
2022-08-26T05:16:02.598Z,77.00
2022-08-26T05:17:02.536Z,73.90
2022-08-26T05:18:02.523Z,76.70
2022-08-26T05:19:02.573Z,71.20
2022-08-26T05:20:02.531Z,74.30
2022-08-26T05:21:02.525Z,75.90
2022-08-26T05:22:02.475Z,71.20
2022-08-26T05:23:02.506Z,68.70
2022-08-26T05:24:02.467Z,69.30
2022-08-26T05:25:02.432Z,74.00
2022-08-26T05:26:02.433Z,73.70
2022-08-26T05:27:02.415Z,73.00
2022-08-26T05:28:03.416Z,75.20
2022-08-26T05:29:02.460Z,76.60
2022-08-26T05:30:02.373Z,74.70
2022-08-26T05:31:02.413Z,73.30
2022-08-26T05:32:02.360Z,72.30
2022-08-26T05:33:02.336Z,72.30
2022-08-26T05:34:03.608Z,74.00
2022-08-26T05:35:02.310Z,73.30
2022-08-26T05:36:02.296Z,75.80
2022-08-26T05:37:02.288Z,78.80
2022-08-26T05:38:02.272Z,78.70
2022-08-26T05:39:02.264Z,82.20
2022-08-26T05:40:02.363Z,85.30
2022-08-26T05:41:02.263Z,85.90
2022-08-26T05:42:02.319Z,85.00
2022-08-26T05:43:02.285Z,88.80
2022-08-26T05:44:02.206Z,82.90
2022-08-26T05:45:02.194Z,86.90
2022-08-26T05:46:02.244Z,84.70
2022-08-26T05:47:02.177Z,85.50
2022-08-26T05:48:02.156Z,84.50
2022-08-26T05:49:02.144Z,80.00
2022-08-26T05:50:02.129Z,80.40
2022-08-26T05:51:02.142Z,79.70
2022-08-26T05:52:02.115Z,81.70
2022-08-26T05:53:02.175Z,79.40
2022-08-26T05:54:02.080Z,81.20
2022-08-26T05:55:02.098Z,81.80
2022-08-26T05:56:02.185Z,85.00
2022-08-26T05:57:02.055Z,82.50
2022-08-26T05:58:02.712Z,78.40
2022-08-26T05:59:02.026Z,77.10
2022-08-26T06:00:02.072Z,77.80
2022-08-26T06:01:02.026Z,81.00
2022-08-26T06:02:02.052Z,74.80
2022-08-26T06:03:02.084Z,80.40
2022-08-26T06:04:02.041Z,80.70
2022-08-26T06:05:02.026Z,81.20
2022-08-26T06:06:01.990Z,77.90
2022-08-26T06:07:01.959Z,76.20
2022-08-26T06:08:01.922Z,78.50
2022-08-26T06:09:02.782Z,82.30
2022-08-26T06:10:30.527Z,83.50
2022-08-26T06:11:02.975Z,85.10
2022-08-26T06:12:01.925Z,89.10
2022-08-26T06:13:09.229Z,89.50
2022-08-26T06:14:03.964Z,95.20
2022-08-26T06:15:01.845Z,90.30
2022-08-26T06:16:01.884Z,92.90
2022-08-26T06:17:01.846Z,96.60
2022-08-26T06:18:01.821Z,99.40
2022-08-26T06:19:01.839Z,101.00
2022-08-26T06:20:01.787Z,94.30
2022-08-26T06:21:01.790Z,94.60
2022-08-26T06:22:01.761Z,88.90
2022-08-26T06:23:01.791Z,92.00
2022-08-26T06:24:01.790Z,88.40
2022-08-26T06:25:01.747Z,90.30
2022-08-26T06:26:01.747Z,89.40
2022-08-26T06:27:01.851Z,86.60
2022-08-26T06:28:01.688Z,83.00
2022-08-26T06:29:01.763Z,80.70
2022-08-26T06:30:01.667Z,86.30
2022-08-26T06:31:01.701Z,87.90
2022-08-26T06:32:01.643Z,82.60
2022-08-26T06:33:01.667Z,83.90
2022-08-26T06:34:01.624Z,84.50
2022-08-26T06:35:01.733Z,81.00
2022-08-26T06:36:01.601Z,83.80
2022-08-26T06:37:01.938Z,82.90
2022-08-26T06:38:01.571Z,86.20
2022-08-26T06:39:01.564Z,85.30
2022-08-26T06:40:01.740Z,84.50
2022-08-26T06:41:02.191Z,86.60
2022-08-26T06:42:02.642Z,79.70
2022-08-26T06:43:01.569Z,88.20
2022-08-26T06:44:01.537Z,82.50
2022-08-26T06:45:01.503Z,85.00
2022-08-26T06:46:01.554Z,82.20
2022-08-26T06:47:01.506Z,82.40
2022-08-26T06:48:01.458Z,81.40
2022-08-26T06:49:01.457Z,81.90
2022-08-26T06:50:01.491Z,76.40
2022-08-26T06:51:01.425Z,76.00
2022-08-26T06:52:01.456Z,76.20
2022-08-26T06:53:01.492Z,75.50
2022-08-26T06:54:01.417Z,82.40
2022-08-26T06:55:01.379Z,76.60
2022-08-26T06:56:01.389Z,81.20
2022-08-26T06:57:01.740Z,80.90
2022-08-26T06:58:01.382Z,83.40
2022-08-26T06:59:01.348Z,78.90
2022-08-26T07:00:01.351Z,86.30
2022-08-26T07:01:09.064Z,77.00
2022-08-26T07:02:02.415Z,77.00
2022-08-26T07:03:01.367Z,76.70
2022-08-26T07:04:01.288Z,75.40
2022-08-26T07:05:01.376Z,71.00
2022-08-26T07:06:01.268Z,74.10
2022-08-26T07:07:01.252Z,69.80
2022-08-26T07:08:01.300Z,72.30
2022-08-26T07:09:01.241Z,70.80
2022-08-26T07:10:01.231Z,68.80
2022-08-26T07:11:01.206Z,69.80
2022-08-26T07:12:01.250Z,71.20
2022-08-26T07:13:01.220Z,67.20
2022-08-26T07:14:01.210Z,71.20
2022-08-26T07:15:01.160Z,71.30
2022-08-26T07:16:03.037Z,70.40
2022-08-26T07:17:01.127Z,68.40
2022-08-26T07:18:01.151Z,72.40
2022-08-26T07:19:01.244Z,71.00
2022-08-26T07:20:01.116Z,72.20
2022-08-26T07:21:01.123Z,69.60
2022-08-26T07:22:01.086Z,76.60
2022-08-26T07:23:01.174Z,81.30
2022-08-26T07:24:01.403Z,82.50
2022-08-26T07:25:01.042Z,76.90
2022-08-26T07:26:01.044Z,77.50
2022-08-26T07:27:01.011Z,78.90
2022-08-26T07:28:01.004Z,73.80
2022-08-26T07:29:01.042Z,73.20
2022-08-26T07:30:00.978Z,77.40
2022-08-26T07:31:01.086Z,73.90
2022-08-26T07:32:00.990Z,72.20
2022-08-26T07:33:00.948Z,74.50
2022-08-26T07:34:01.022Z,73.30
2022-08-26T07:35:00.949Z,75.00
2022-08-26T07:36:00.916Z,70.10
2022-08-26T07:37:01.019Z,70.30
2022-08-26T07:38:00.900Z,69.60
2022-08-26T07:39:00.879Z,67.60
2022-08-26T07:40:00.954Z,67.00
2022-08-26T07:41:00.900Z,64.10
2022-08-26T07:42:00.937Z,71.20
2022-08-26T07:43:00.949Z,66.10
2022-08-26T07:44:00.818Z,62.70
2022-08-26T07:45:00.807Z,62.50
2022-08-26T07:46:00.848Z,57.80
2022-08-26T07:47:00.802Z,64.80
2022-08-26T07:48:00.793Z,61.10
2022-08-26T07:49:00.791Z,58.40
2022-08-26T07:50:00.752Z,59.50
2022-08-26T07:51:00.776Z,58.50
2022-08-26T07:52:00.767Z,58.70
2022-08-26T07:53:00.718Z,57.00
2022-08-26T07:54:00.705Z,62.30
2022-08-26T07:55:00.734Z,59.90
2022-08-26T07:56:00.685Z,59.30
2022-08-26T07:57:00.779Z,58.20
2022-08-26T07:58:00.657Z,59.00
2022-08-26T07:59:00.702Z,57.50
2022-08-26T08:00:00.633Z,57.70
2022-08-26T08:01:00.684Z,57.00
2022-08-26T08:02:00.690Z,54.90
2022-08-26T08:03:00.664Z,60.40
2022-08-26T08:04:00.603Z,56.40
2022-08-26T08:05:00.602Z,54.90
2022-08-26T08:06:00.568Z,55.90
2022-08-26T08:07:00.577Z,54.60
2022-08-26T08:08:21.841Z,54.30
2022-08-26T08:09:01.534Z,56.00
2022-08-26T08:10:00.521Z,52.70
2022-08-26T08:11:00.530Z,53.40
2022-08-26T08:12:00.510Z,53.20
2022-08-26T08:13:00.489Z,51.90
2022-08-26T08:14:00.533Z,49.60
2022-08-26T08:15:00.467Z,49.80
2022-08-26T08:16:00.470Z,48.60
2022-08-26T08:17:00.655Z,48.80
2022-08-26T08:18:01.051Z,48.00
2022-08-26T08:19:00.437Z,52.70
2022-08-26T08:20:00.416Z,50.00
2022-08-26T08:21:21.350Z,48.60
2022-08-26T08:22:01.380Z,49.80
2022-08-26T08:23:00.378Z,46.90
2022-08-26T08:24:00.368Z,48.80
2022-08-26T08:25:00.387Z,44.10
2022-08-26T08:26:00.363Z,45.20
2022-08-26T08:27:00.341Z,45.80
2022-08-26T08:28:00.334Z,46.90
2022-08-26T08:29:00.331Z,43.60
2022-08-26T08:30:00.351Z,48.10
2022-08-26T08:31:00.428Z,46.30
2022-08-26T08:32:00.349Z,48.60
2022-08-26T08:33:00.310Z,47.70
2022-08-26T08:34:00.260Z,48.80
2022-08-26T08:35:00.253Z,47.30
2022-08-26T08:36:00.234Z,49.00
2022-08-26T08:37:00.320Z,46.40
2022-08-26T08:38:00.202Z,46.30
2022-08-26T08:39:00.202Z,43.60
2022-08-26T08:40:00.319Z,47.00
2022-08-26T08:41:00.175Z,45.80
2022-08-26T08:42:00.267Z,43.40
2022-08-26T08:43:00.149Z,42.60
2022-08-26T08:44:00.193Z,42.10
2022-08-26T08:45:00.147Z,45.70
2022-08-26T08:46:00.159Z,40.90
2022-08-26T08:47:00.142Z,39.70
2022-08-26T08:48:00.117Z,41.80
2022-08-26T08:49:00.106Z,45.00
2022-08-26T08:50:00.105Z,41.40
2022-08-26T08:51:00.061Z,41.50
2022-08-26T08:52:00.118Z,40.40
2022-08-26T08:53:00.082Z,41.20
2022-08-26T08:54:00.031Z,41.00
2022-08-26T08:55:00.022Z,39.30
2022-08-26T08:56:00.021Z,40.40
2022-08-26T08:56:59.992Z,39.40
2022-08-26T08:58:02.223Z,41.30
2022-08-26T08:58:59.967Z,42.40
2022-08-26T09:00:00.001Z,40.00
2022-08-26T09:00:59.990Z,47.40
2022-08-26T09:01:59.995Z,42.80
2022-08-26T09:02:59.967Z,46.10
2022-08-26T09:03:59.932Z,42.40
2022-08-26T09:04:59.972Z,39.30
2022-08-26T09:05:59.934Z,43.90
2022-08-26T09:06:59.929Z,39.70
2022-08-26T09:07:59.955Z,41.70
2022-08-26T09:08:59.861Z,42.50
2022-08-26T09:09:59.906Z,43.00
2022-08-26T09:10:59.844Z,47.70
2022-08-26T09:11:59.846Z,43.60
2022-08-26T09:12:59.864Z,39.90
2022-08-26T09:14:00.309Z,42.10
2022-08-26T09:14:59.799Z,39.90
2022-08-26T09:15:59.797Z,39.90
2022-08-26T09:16:59.974Z,39.50
2022-08-26T09:17:59.791Z,40.80
2022-08-26T09:18:59.858Z,40.80
2022-08-26T09:19:59.744Z,44.60
2022-08-26T09:20:59.726Z,39.30
2022-08-26T09:21:59.732Z,39.70
2022-08-26T09:22:59.736Z,38.00
2022-08-26T09:23:59.718Z,41.30
2022-08-26T09:24:59.688Z,44.00
2022-08-26T09:25:59.697Z,39.50
2022-08-26T09:26:59.664Z,39.70
2022-08-26T09:27:59.656Z,41.90
2022-08-26T09:28:59.677Z,41.60
2022-08-26T09:29:59.628Z,43.70
2022-08-26T09:30:59.734Z,41.00
2022-08-26T09:31:59.612Z,41.10
2022-08-26T09:32:59.602Z,40.90
2022-08-26T09:33:59.602Z,41.60
2022-08-26T09:34:59.615Z,40.60
2022-08-26T09:35:59.578Z,39.40
2022-08-26T09:36:59.572Z,41.00
2022-08-26T09:37:59.550Z,42.40
2022-08-26T09:38:59.568Z,42.30
2022-08-26T09:39:59.744Z,41.90
2022-08-26T09:40:59.726Z,45.00
2022-08-26T09:41:59.515Z,43.20
2022-08-26T09:42:59.488Z,41.00
2022-08-26T09:43:59.541Z,40.40
2022-08-26T09:44:59.561Z,40.70
2022-08-26T09:45:59.889Z,39.70
2022-08-26T09:46:59.451Z,39.40
2022-08-26T09:48:01.465Z,37.80
2022-08-26T09:48:59.424Z,37.70
2022-08-26T09:49:59.451Z,38.40
2022-08-26T09:50:59.416Z,41.20
2022-08-26T09:51:59.406Z,36.90
2022-08-26T09:52:59.386Z,36.30
2022-08-26T09:53:59.372Z,36.00
2022-08-26T09:54:59.356Z,36.40
2022-08-26T09:55:59.402Z,34.00
2022-08-26T09:56:59.347Z,33.10
2022-08-26T09:58:03.581Z,33.60
2022-08-26T09:59:00.306Z,30.70
2022-08-26T09:59:59.291Z,36.90
2022-08-26T10:00:59.399Z,35.00
2022-08-26T10:01:59.334Z,33.70
2022-08-26T10:02:59.257Z,31.10
2022-08-26T10:03:59.327Z,32.10
2022-08-26T10:04:59.274Z,32.20
2022-08-26T10:06:00.271Z,32.10
2022-08-26T10:06:59.213Z,34.30
2022-08-26T10:07:59.648Z,32.20
2022-08-26T10:08:59.347Z,32.80
2022-08-26T10:09:59.202Z,40.10
2022-08-26T10:10:59.192Z,33.00
2022-08-26T10:11:59.167Z,35.40
2022-08-26T10:12:59.146Z,33.50
2022-08-26T10:13:59.197Z,33.60
2022-08-26T10:14:59.147Z,32.30
2022-08-26T10:15:59.156Z,33.20
2022-08-26T10:16:59.199Z,31.60
2022-08-26T10:17:59.091Z,32.90
2022-08-26T10:19:00.506Z,39.10
2022-08-26T10:19:59.079Z,33.80
2022-08-26T10:20:59.054Z,33.90
2022-08-26T10:21:59.127Z,38.80
2022-08-26T10:22:59.121Z,49.30
2022-08-26T10:23:59.052Z,37.50
2022-08-26T10:24:59.026Z,35.00
2022-08-26T10:25:59.355Z,36.80
2022-08-26T10:26:59.031Z,39.50
2022-08-26T10:27:58.974Z,41.60
2022-08-26T10:28:58.989Z,42.10
2022-08-26T10:29:58.986Z,35.60
2022-08-26T10:30:58.944Z,34.40
2022-08-26T10:32:02.691Z,35.80
2022-08-26T10:32:58.926Z,39.50
2022-08-26T10:34:00.415Z,33.10
2022-08-26T10:34:58.914Z,38.00
2022-08-26T10:35:58.945Z,33.70
2022-08-26T10:37:13.948Z,40.60
2022-08-26T10:37:59.903Z,37.00
2022-08-26T10:38:58.878Z,32.60
2022-08-26T10:39:59.345Z,32.10
2022-08-26T10:40:58.866Z,31.00
2022-08-26T10:41:58.888Z,29.90
2022-08-26T10:42:58.815Z,29.00
2022-08-26T10:43:58.820Z,28.10
2022-08-26T10:44:58.899Z,29.40
2022-08-26T10:45:58.876Z,28.20
2022-08-26T10:46:58.771Z,29.10
2022-08-26T10:47:58.789Z,30.90
2022-08-26T10:48:59.914Z,27.40
2022-08-26T10:50:03.385Z,30.30
2022-08-26T10:50:58.724Z,30.00
2022-08-26T10:51:58.715Z,29.10
2022-08-26T10:52:58.743Z,29.20
2022-08-26T10:53:58.699Z,27.00
2022-08-26T10:54:58.677Z,26.30
2022-08-26T10:55:58.666Z,27.90
2022-08-26T10:56:58.662Z,28.40
2022-08-26T10:57:58.696Z,29.50
2022-08-26T10:58:58.651Z,28.20
2022-08-26T10:59:58.624Z,30.00
2022-08-26T11:00:58.697Z,29.40
2022-08-26T11:01:58.603Z,30.50
2022-08-26T11:02:58.596Z,28.50
2022-08-26T11:03:58.644Z,35.00
2022-08-26T11:04:58.579Z,30.70
2022-08-26T11:05:58.568Z,27.40
2022-08-26T11:06:58.582Z,24.60
2022-08-26T11:07:58.539Z,29.00
2022-08-26T11:08:58.527Z,25.70
2022-08-26T11:09:58.544Z,24.10
2022-08-26T11:10:59.103Z,24.40
2022-08-26T11:11:58.533Z,24.90
2022-08-26T11:12:58.488Z,25.30
2022-08-26T11:13:58.468Z,23.70
2022-08-26T11:14:59.387Z,22.40
2022-08-26T11:15:58.450Z,25.30
2022-08-26T11:16:58.519Z,25.50
2022-08-26T11:17:58.434Z,28.30
2022-08-26T11:18:58.413Z,25.90
2022-08-26T11:20:01.962Z,25.50
2022-08-26T11:20:58.416Z,28.40
2022-08-26T11:21:58.385Z,28.50
2022-08-26T11:22:59.639Z,25.10
2022-08-26T11:23:58.361Z,25.30
2022-08-26T11:24:58.349Z,25.60
2022-08-26T11:25:58.406Z,23.60
2022-08-26T11:26:58.324Z,24.30
2022-08-26T11:27:58.318Z,23.70
2022-08-26T11:28:58.302Z,24.40
2022-08-26T11:29:58.295Z,22.70
2022-08-26T11:30:58.525Z,23.60
2022-08-26T11:31:58.353Z,23.40
2022-08-26T11:32:58.258Z,24.70
2022-08-26T11:33:58.251Z,21.10
2022-08-26T11:34:58.412Z,21.10
2022-08-26T11:35:58.221Z,20.90
2022-08-26T11:36:58.262Z,21.00
2022-08-26T11:37:58.198Z,21.20
2022-08-26T11:38:58.197Z,20.90
2022-08-26T11:39:58.258Z,20.80
2022-08-26T11:40:58.172Z,20.70
2022-08-26T11:41:58.158Z,20.80
2022-08-26T11:42:58.176Z,22.20
2022-08-26T11:43:58.135Z,21.90
2022-08-26T11:44:58.337Z,23.10
2022-08-26T11:45:58.166Z,22.60
2022-08-26T11:46:58.098Z,23.20
2022-08-26T11:47:58.110Z,22.00
2022-08-26T11:48:58.076Z,22.30
2022-08-26T11:49:58.067Z,21.20
2022-08-26T11:50:58.061Z,20.90
2022-08-26T11:51:58.053Z,20.80
2022-08-26T11:52:58.073Z,20.30
2022-08-26T11:53:58.023Z,20.60
2022-08-26T11:54:58.012Z,21.00
2022-08-26T11:55:58.000Z,21.40
2022-08-26T11:56:58.002Z,21.30
2022-08-26T11:57:58.002Z,23.40
2022-08-26T11:58:57.963Z,20.20
2022-08-26T11:59:58.056Z,20.20
2022-08-26T12:00:57.950Z,22.50
2022-08-26T12:01:57.940Z,23.60
2022-08-26T12:02:57.955Z,22.90
2022-08-26T12:03:58.412Z,24.30
2022-08-26T12:04:57.903Z,22.70
2022-08-26T12:05:57.912Z,24.30
2022-08-26T12:06:57.878Z,23.90
2022-08-26T12:07:57.865Z,28.30
2022-08-26T12:08:57.883Z,27.70
2022-08-26T12:09:57.851Z,28.40
2022-08-26T12:10:57.870Z,30.40
2022-08-26T12:11:58.042Z,30.60
2022-08-26T12:12:57.816Z,32.40
2022-08-26T12:13:57.827Z,33.90
2022-08-26T12:14:57.812Z,33.80
2022-08-26T12:15:57.778Z,31.30
2022-08-26T12:16:57.770Z,32.60
2022-08-26T12:17:57.862Z,29.90
2022-08-26T12:18:57.749Z,31.10
2022-08-26T12:19:57.798Z,30.00
2022-08-26T12:20:57.722Z,30.40
2022-08-26T12:21:57.710Z,31.40
2022-08-26T12:22:57.785Z,32.70
2022-08-26T12:23:57.692Z,31.70
2022-08-26T12:24:57.684Z,29.60
2022-08-26T12:25:57.758Z,29.90
2022-08-26T12:26:57.660Z,34.90
2022-08-26T12:27:57.680Z,37.00
2022-08-26T12:28:57.643Z,31.50
2022-08-26T12:29:57.626Z,31.50
2022-08-26T12:30:57.618Z,32.10
2022-08-26T12:31:57.694Z,31.40
2022-08-26T12:32:58.732Z,31.00
2022-08-26T12:33:57.582Z,29.10
2022-08-26T12:34:57.606Z,29.10
2022-08-26T12:35:57.572Z,29.10
2022-08-26T12:37:57.653Z,29.70
2022-08-26T12:38:58.434Z,31.80
2022-08-26T12:39:57.587Z,33.10
2022-08-26T12:40:57.509Z,32.10
2022-08-26T12:41:57.615Z,39.10
2022-08-26T12:42:57.489Z,35.50
2022-08-26T12:43:57.480Z,36.40
2022-08-26T12:44:57.468Z,35.40
2022-08-26T12:45:57.520Z,31.90
2022-08-26T12:46:57.478Z,26.80
2022-08-26T12:47:57.429Z,24.20
2022-08-26T12:48:57.415Z,21.90
2022-08-26T12:49:57.414Z,20.20
2022-08-26T12:50:57.394Z,21.80
2022-08-26T12:51:57.396Z,20.50
2022-08-26T12:52:57.419Z,23.40
2022-08-26T12:53:57.364Z,22.50
2022-08-26T12:54:57.363Z,24.70